sensor_id;sensor_type;location;lat;lon;timestamp;P1;durP1;ratioP1;P2;durP2;ratioP2
21581;SDS011;10952;50.836;4.348;2024-02-28T00:00:29;21.97;;;13.53;;
21581;SDS011;10952;50.836;4.348;2024-02-28T00:02:54;25.40;;;13.33;;
21581;SDS011;10952;50.836;4.348;2024-02-28T00:05:20;20.90;;;12.97;;
21581;SDS011;10952;50.836;4.348;2024-02-28T00:07:46;26.83;;;13.13;;
21581;SDS011;10952;50.836;4.348;2024-02-28T00:10:12;23.97;;;12.87;;
21581;SDS011;10952;50.836;4.348;2024-02-28T00:12:41;24.80;;;12.90;;
21581;SDS011;10952;50.836;4.348;2024-02-28T00:15:06;25.10;;;12.90;;
21581;SDS011;10952;50.836;4.348;2024-02-28T00:17:37;20.17;;;12.43;;
21581;SDS011;10952;50.836;4.348;2024-02-28T00:20:05;24.00;;;13.80;;
21581;SDS011;10952;50.836;4.348;2024-02-28T00:22:31;27.67;;;14.17;;
21581;SDS011;10952;50.836;4.348;2024-02-28T00:24:57;25.20;;;13.90;;
21581;SDS011;10952;50.836;4.348;2024-02-28T00:27:22;26.90;;;13.70;;
21581;SDS011;10952;50.836;4.348;2024-02-28T00:29:48;28.90;;;14.07;;
21581;SDS011;10952;50.836;4.348;2024-02-28T00:32:13;25.23;;;13.40;;
21581;SDS011;10952;50.836;4.348;2024-02-28T00:34:39;25.80;;;13.23;;
21581;SDS011;10952;50.836;4.348;2024-02-28T00:37:05;38.03;;;14.93;;
21581;SDS011;10952;50.836;4.348;2024-02-28T00:39:30;26.33;;;13.70;;
21581;SDS011;10952;50.836;4.348;2024-02-28T00:41:56;29.47;;;14.40;;
21581;SDS011;10952;50.836;4.348;2024-02-28T00:44:22;24.23;;;14.03;;
21581;SDS011;10952;50.836;4.348;2024-02-28T00:46:47;30.67;;;13.50;;
21581;SDS011;10952;50.836;4.348;2024-02-28T00:49:13;22.60;;;13.83;;
21581;SDS011;10952;50.836;4.348;2024-02-28T00:51:38;26.00;;;14.27;;
21581;SDS011;10952;50.836;4.348;2024-02-28T00:54:04;25.30;;;13.90;;
21581;SDS011;10952;50.836;4.348;2024-02-28T00:56:30;24.73;;;13.67;;
21581;SDS011;10952;50.836;4.348;2024-02-28T00:58:55;22.67;;;13.90;;
21581;SDS011;10952;50.836;4.348;2024-02-28T01:01:21;27.03;;;14.63;;
21581;SDS011;10952;50.836;4.348;2024-02-28T01:03:47;28.17;;;14.37;;
21581;SDS011;10952;50.836;4.348;2024-02-28T01:06:12;28.77;;;15.33;;
21581;SDS011;10952;50.836;4.348;2024-02-28T01:08:40;22.73;;;13.93;;
21581;SDS011;10952;50.836;4.348;2024-02-28T01:11:05;30.17;;;15.43;;
21581;SDS011;10952;50.836;4.348;2024-02-28T01:13:31;20.20;;;12.90;;
21581;SDS011;10952;50.836;4.348;2024-02-28T01:15:56;20.63;;;13.23;;
21581;SDS011;10952;50.836;4.348;2024-02-28T01:18:24;20.83;;;12.73;;
21581;SDS011;10952;50.836;4.348;2024-02-28T01:20:49;18.40;;;11.73;;
21581;SDS011;10952;50.836;4.348;2024-02-28T01:23:16;19.93;;;12.00;;
21581;SDS011;10952;50.836;4.348;2024-02-28T01:25:42;23.73;;;11.97;;
21581;SDS011;10952;50.836;4.348;2024-02-28T01:28:07;19.80;;;11.27;;
21581;SDS011;10952;50.836;4.348;2024-02-28T01:30:33;22.63;;;11.57;;
21581;SDS011;10952;50.836;4.348;2024-02-28T01:32:58;24.43;;;11.93;;
21581;SDS011;10952;50.836;4.348;2024-02-28T01:35:24;19.50;;;11.60;;
21581;SDS011;10952;50.836;4.348;2024-02-28T01:37:50;21.30;;;11.20;;
21581;SDS011;10952;50.836;4.348;2024-02-28T01:40:16;24.10;;;10.80;;
21581;SDS011;10952;50.836;4.348;2024-02-28T01:42:41;19.83;;;10.70;;
21581;SDS011;10952;50.836;4.348;2024-02-28T01:45:07;17.67;;;10.07;;
21581;SDS011;10952;50.836;4.348;2024-02-28T01:47:37;22.47;;;11.97;;
21581;SDS011;10952;50.836;4.348;2024-02-28T01:50:04;19.97;;;11.97;;
21581;SDS011;10952;50.836;4.348;2024-02-28T01:52:30;19.07;;;12.07;;
21581;SDS011;10952;50.836;4.348;2024-02-28T01:54:56;21.93;;;13.27;;
21581;SDS011;10952;50.836;4.348;2024-02-28T01:57:22;26.47;;;12.93;;
21581;SDS011;10952;50.836;4.348;2024-02-28T01:59:47;21.27;;;13.93;;
21581;SDS011;10952;50.836;4.348;2024-02-28T02:02:13;24.90;;;14.63;;
21581;SDS011;10952;50.836;4.348;2024-02-28T02:04:39;25.03;;;13.50;;
21581;SDS011;10952;50.836;4.348;2024-02-28T02:07:05;24.73;;;12.73;;
21581;SDS011;10952;50.836;4.348;2024-02-28T02:09:32;23.80;;;12.57;;
21581;SDS011;10952;50.836;4.348;2024-02-28T02:11:59;20.77;;;13.67;;
21581;SDS011;10952;50.836;4.348;2024-02-28T02:14:24;23.10;;;13.10;;
21581;SDS011;10952;50.836;4.348;2024-02-28T02:16:50;24.47;;;13.27;;
21581;SDS011;10952;50.836;4.348;2024-02-28T02:19:16;24.57;;;13.67;;
21581;SDS011;10952;50.836;4.348;2024-02-28T02:21:43;26.00;;;14.30;;
21581;SDS011;10952;50.836;4.348;2024-02-28T02:24:15;19.20;;;12.93;;
21581;SDS011;10952;50.836;4.348;2024-02-28T02:26:41;22.40;;;12.93;;
21581;SDS011;10952;50.836;4.348;2024-02-28T02:29:09;21.87;;;13.10;;
21581;SDS011;10952;50.836;4.348;2024-02-28T02:31:35;25.60;;;13.87;;
21581;SDS011;10952;50.836;4.348;2024-02-28T02:34:01;23.13;;;13.50;;
21581;SDS011;10952;50.836;4.348;2024-02-28T02:36:26;21.27;;;12.97;;
21581;SDS011;10952;50.836;4.348;2024-02-28T02:38:52;25.60;;;13.23;;
21581;SDS011;10952;50.836;4.348;2024-02-28T02:41:17;22.67;;;13.10;;
21581;SDS011;10952;50.836;4.348;2024-02-28T02:43:43;24.77;;;14.47;;
21581;SDS011;10952;50.836;4.348;2024-02-28T02:46:09;22.10;;;12.83;;
21581;SDS011;10952;50.836;4.348;2024-02-28T02:48:34;30.80;;;13.43;;
21581;SDS011;10952;50.836;4.348;2024-02-28T02:51:00;29.00;;;14.13;;
21581;SDS011;10952;50.836;4.348;2024-02-28T02:53:26;23.53;;;13.50;;
21581;SDS011;10952;50.836;4.348;2024-02-28T02:55:52;22.30;;;12.83;;
21581;SDS011;10952;50.836;4.348;2024-02-28T02:58:19;25.13;;;13.63;;
21581;SDS011;10952;50.836;4.348;2024-02-28T03:00:44;30.13;;;14.33;;
21581;SDS011;10952;50.836;4.348;2024-02-28T03:03:10;23.70;;;12.77;;
21581;SDS011;10952;50.836;4.348;2024-02-28T03:05:35;27.53;;;13.43;;
21581;SDS011;10952;50.836;4.348;2024-02-28T03:08:01;26.40;;;13.83;;
21581;SDS011;10952;50.836;4.348;2024-02-28T03:10:27;26.20;;;14.07;;
21581;SDS011;10952;50.836;4.348;2024-02-28T03:12:53;27.20;;;13.83;;
21581;SDS011;10952;50.836;4.348;2024-02-28T03:15:19;25.20;;;13.00;;
21581;SDS011;10952;50.836;4.348;2024-02-28T03:17:45;23.10;;;13.30;;
21581;SDS011;10952;50.836;4.348;2024-02-28T03:20:11;23.67;;;13.90;;
21581;SDS011;10952;50.836;4.348;2024-02-28T03:22:39;26.20;;;14.07;;
21581;SDS011;10952;50.836;4.348;2024-02-28T03:25:05;26.37;;;14.53;;
21581;SDS011;10952;50.836;4.348;2024-02-28T03:27:31;24.63;;;13.13;;
21581;SDS011;10952;50.836;4.348;2024-02-28T03:29:57;26.33;;;14.03;;
21581;SDS011;10952;50.836;4.348;2024-02-28T03:32:23;28.77;;;12.93;;
21581;SDS011;10952;50.836;4.348;2024-02-28T03:34:48;27.50;;;13.90;;
21581;SDS011;10952;50.836;4.348;2024-02-28T03:37:14;24.47;;;14.13;;
21581;SDS011;10952;50.836;4.348;2024-02-28T03:39:40;24.00;;;13.70;;
21581;SDS011;10952;50.836;4.348;2024-02-28T03:42:05;23.07;;;13.93;;
21581;SDS011;10952;50.836;4.348;2024-02-28T03:44:31;28.60;;;15.30;;
21581;SDS011;10952;50.836;4.348;2024-02-28T03:46:57;23.07;;;13.53;;
21581;SDS011;10952;50.836;4.348;2024-02-28T03:49:22;24.60;;;13.97;;
21581;SDS011;10952;50.836;4.348;2024-02-28T03:51:48;25.93;;;13.23;;
21581;SDS011;10952;50.836;4.348;2024-02-28T03:54:14;21.77;;;13.13;;
21581;SDS011;10952;50.836;4.348;2024-02-28T03:56:40;27.00;;;13.97;;
21581;SDS011;10952;50.836;4.348;2024-02-28T03:59:05;24.70;;;13.13;;
21581;SDS011;10952;50.836;4.348;2024-02-28T04:01:31;23.67;;;12.90;;
21581;SDS011;10952;50.836;4.348;2024-02-28T04:03:57;23.57;;;13.37;;
21581;SDS011;10952;50.836;4.348;2024-02-28T04:06:22;23.37;;;12.70;;
21581;SDS011;10952;50.836;4.348;2024-02-28T04:08:48;23.23;;;13.00;;
21581;SDS011;10952;50.836;4.348;2024-02-28T04:11:14;23.43;;;13.37;;
21581;SDS011;10952;50.836;4.348;2024-02-28T04:13:40;22.33;;;11.17;;
21581;SDS011;10952;50.836;4.348;2024-02-28T04:16:06;24.43;;;13.40;;
21581;SDS011;10952;50.836;4.348;2024-02-28T04:18:32;29.30;;;12.90;;
21581;SDS011;10952;50.836;4.348;2024-02-28T04:20:58;23.27;;;12.17;;
21581;SDS011;10952;50.836;4.348;2024-02-28T04:23:24;20.10;;;11.60;;
21581;SDS011;10952;50.836;4.348;2024-02-28T04:25:49;23.53;;;11.30;;
21581;SDS011;10952;50.836;4.348;2024-02-28T04:28:15;29.13;;;13.73;;
21581;SDS011;10952;50.836;4.348;2024-02-28T04:30:41;21.37;;;13.00;;
21581;SDS011;10952;50.836;4.348;2024-02-28T04:33:06;23.47;;;11.47;;
21581;SDS011;10952;50.836;4.348;2024-02-28T04:35:32;27.27;;;12.27;;
21581;SDS011;10952;50.836;4.348;2024-02-28T04:37:58;23.70;;;12.60;;
21581;SDS011;10952;50.836;4.348;2024-02-28T04:40:23;22.00;;;11.80;;
21581;SDS011;10952;50.836;4.348;2024-02-28T04:42:49;29.37;;;13.40;;
21581;SDS011;10952;50.836;4.348;2024-02-28T04:45:15;20.90;;;12.53;;
21581;SDS011;10952;50.836;4.348;2024-02-28T04:47:40;22.53;;;12.77;;
21581;SDS011;10952;50.836;4.348;2024-02-28T04:50:06;31.77;;;12.67;;
21581;SDS011;10952;50.836;4.348;2024-02-28T04:52:35;32.20;;;13.57;;
21581;SDS011;10952;50.836;4.348;2024-02-28T04:55:00;26.90;;;12.90;;
21581;SDS011;10952;50.836;4.348;2024-02-28T04:57:26;29.87;;;13.97;;
21581;SDS011;10952;50.836;4.348;2024-02-28T04:59:52;20.53;;;12.93;;
21581;SDS011;10952;50.836;4.348;2024-02-28T05:02:18;26.80;;;12.80;;
21581;SDS011;10952;50.836;4.348;2024-02-28T05:04:43;23.03;;;12.90;;
21581;SDS011;10952;50.836;4.348;2024-02-28T05:07:09;25.30;;;12.80;;
21581;SDS011;10952;50.836;4.348;2024-02-28T05:09:35;21.53;;;12.57;;
21581;SDS011;10952;50.836;4.348;2024-02-28T05:12:01;25.17;;;13.03;;
21581;SDS011;10952;50.836;4.348;2024-02-28T05:14:27;25.27;;;14.63;;
21581;SDS011;10952;50.836;4.348;2024-02-28T05:16:53;20.20;;;12.37;;
21581;SDS011;10952;50.836;4.348;2024-02-28T05:19:18;25.70;;;12.30;;
21581;SDS011;10952;50.836;4.348;2024-02-28T05:21:44;30.53;;;13.83;;
21581;SDS011;10952;50.836;4.348;2024-02-28T05:24:10;25.73;;;13.83;;
21581;SDS011;10952;50.836;4.348;2024-02-28T05:26:37;29.53;;;14.30;;
21581;SDS011;10952;50.836;4.348;2024-02-28T05:29:03;26.17;;;13.50;;
21581;SDS011;10952;50.836;4.348;2024-02-28T05:31:29;26.27;;;12.83;;
21581;SDS011;10952;50.836;4.348;2024-02-28T05:33:59;22.17;;;13.03;;
21581;SDS011;10952;50.836;4.348;2024-02-28T05:36:26;29.80;;;13.77;;
21581;SDS011;10952;50.836;4.348;2024-02-28T05:38:54;27.83;;;13.90;;
21581;SDS011;10952;50.836;4.348;2024-02-28T05:41:20;26.30;;;13.17;;
21581;SDS011;10952;50.836;4.348;2024-02-28T05:43:46;25.97;;;13.73;;
21581;SDS011;10952;50.836;4.348;2024-02-28T05:46:13;22.10;;;13.27;;
21581;SDS011;10952;50.836;4.348;2024-02-28T05:48:42;26.57;;;13.90;;
21581;SDS011;10952;50.836;4.348;2024-02-28T05:51:10;23.00;;;12.60;;
21581;SDS011;10952;50.836;4.348;2024-02-28T05:53:39;25.73;;;13.03;;
21581;SDS011;10952;50.836;4.348;2024-02-28T05:56:05;27.17;;;12.80;;
21581;SDS011;10952;50.836;4.348;2024-02-28T05:58:38;29.03;;;12.90;;
21581;SDS011;10952;50.836;4.348;2024-02-28T06:01:08;31.47;;;13.83;;
21581;SDS011;10952;50.836;4.348;2024-02-28T06:03:34;27.60;;;13.43;;
21581;SDS011;10952;50.836;4.348;2024-02-28T06:06:01;21.40;;;12.80;;
21581;SDS011;10952;50.836;4.348;2024-02-28T06:08:29;27.43;;;12.93;;
21581;SDS011;10952;50.836;4.348;2024-02-28T06:10:58;24.50;;;12.47;;
21581;SDS011;10952;50.836;4.348;2024-02-28T06:13:24;30.60;;;13.93;;
21581;SDS011;10952;50.836;4.348;2024-02-28T06:15:50;24.80;;;12.97;;
21581;SDS011;10952;50.836;4.348;2024-02-28T06:18:15;30.27;;;12.63;;
21581;SDS011;10952;50.836;4.348;2024-02-28T06:20:41;27.50;;;13.23;;
21581;SDS011;10952;50.836;4.348;2024-02-28T06:23:07;28.77;;;13.83;;
21581;SDS011;10952;50.836;4.348;2024-02-28T06:25:32;25.17;;;13.40;;
21581;SDS011;10952;50.836;4.348;2024-02-28T06:27:59;25.20;;;12.93;;
21581;SDS011;10952;50.836;4.348;2024-02-28T06:30:27;23.53;;;12.97;;
21581;SDS011;10952;50.836;4.348;2024-02-28T06:32:53;26.20;;;13.63;;
21581;SDS011;10952;50.836;4.348;2024-02-28T06:35:18;23.93;;;12.03;;
21581;SDS011;10952;50.836;4.348;2024-02-28T06:37:44;31.37;;;12.43;;
21581;SDS011;10952;50.836;4.348;2024-02-28T06:40:15;22.20;;;12.07;;
21581;SDS011;10952;50.836;4.348;2024-02-28T06:42:40;23.33;;;12.37;;
21581;SDS011;10952;50.836;4.348;2024-02-28T06:45:06;26.07;;;12.43;;
21581;SDS011;10952;50.836;4.348;2024-02-28T06:47:33;22.70;;;11.70;;
21581;SDS011;10952;50.836;4.348;2024-02-28T06:49:59;24.83;;;13.10;;
21581;SDS011;10952;50.836;4.348;2024-02-28T06:52:25;29.00;;;12.20;;
21581;SDS011;10952;50.836;4.348;2024-02-28T06:54:50;27.40;;;12.57;;
21581;SDS011;10952;50.836;4.348;2024-02-28T06:57:16;33.50;;;11.80;;
21581;SDS011;10952;50.836;4.348;2024-02-28T06:59:42;21.63;;;12.03;;
21581;SDS011;10952;50.836;4.348;2024-02-28T07:02:08;24.17;;;12.17;;
21581;SDS011;10952;50.836;4.348;2024-02-28T07:04:33;27.93;;;12.83;;
21581;SDS011;10952;50.836;4.348;2024-02-28T07:07:00;23.03;;;12.73;;
21581;SDS011;10952;50.836;4.348;2024-02-28T07:09:26;25.10;;;11.77;;
21581;SDS011;10952;50.836;4.348;2024-02-28T07:11:54;23.77;;;11.90;;
21581;SDS011;10952;50.836;4.348;2024-02-28T07:14:20;27.00;;;11.90;;
21581;SDS011;10952;50.836;4.348;2024-02-28T07:16:46;28.17;;;12.10;;
21581;SDS011;10952;50.836;4.348;2024-02-28T07:19:12;29.83;;;13.13;;
21581;SDS011;10952;50.836;4.348;2024-02-28T07:21:38;31.53;;;12.50;;
21581;SDS011;10952;50.836;4.348;2024-02-28T07:24:03;30.83;;;12.53;;
21581;SDS011;10952;50.836;4.348;2024-02-28T07:26:31;25.37;;;10.20;;
21581;SDS011;10952;50.836;4.348;2024-02-28T07:28:57;34.37;;;11.97;;
21581;SDS011;10952;50.836;4.348;2024-02-28T07:31:22;29.47;;;12.97;;
21581;SDS011;10952;50.836;4.348;2024-02-28T07:33:48;31.57;;;14.50;;
21581;SDS011;10952;50.836;4.348;2024-02-28T07:36:14;22.93;;;11.70;;
21581;SDS011;10952;50.836;4.348;2024-02-28T07:38:43;30.20;;;12.13;;
21581;SDS011;10952;50.836;4.348;2024-02-28T07:41:09;24.17;;;11.97;;
21581;SDS011;10952;50.836;4.348;2024-02-28T07:43:35;28.97;;;11.83;;
21581;SDS011;10952;50.836;4.348;2024-02-28T07:46:09;26.37;;;11.47;;
21581;SDS011;10952;50.836;4.348;2024-02-28T07:48:36;28.20;;;12.17;;
21581;SDS011;10952;50.836;4.348;2024-02-28T07:51:05;24.07;;;12.00;;
21581;SDS011;10952;50.836;4.348;2024-02-28T07:53:34;28.43;;;12.37;;
21581;SDS011;10952;50.836;4.348;2024-02-28T07:56:00;21.80;;;11.43;;
21581;SDS011;10952;50.836;4.348;2024-02-28T07:58:26;29.83;;;12.43;;
21581;SDS011;10952;50.836;4.348;2024-02-28T08:00:51;33.47;;;14.20;;
21581;SDS011;10952;50.836;4.348;2024-02-28T08:03:17;31.13;;;12.40;;
21581;SDS011;10952;50.836;4.348;2024-02-28T08:05:43;28.43;;;12.57;;
21581;SDS011;10952;50.836;4.348;2024-02-28T08:08:09;27.00;;;13.00;;
21581;SDS011;10952;50.836;4.348;2024-02-28T08:10:36;30.70;;;12.40;;
21581;SDS011;10952;50.836;4.348;2024-02-28T08:13:03;29.27;;;13.17;;
21581;SDS011;10952;50.836;4.348;2024-02-28T08:15:29;27.93;;;12.90;;
21581;SDS011;10952;50.836;4.348;2024-02-28T08:17:55;33.10;;;13.60;;
21581;SDS011;10952;50.836;4.348;2024-02-28T08:20:20;38.57;;;17.20;;
21581;SDS011;10952;50.836;4.348;2024-02-28T08:22:46;28.37;;;13.27;;
21581;SDS011;10952;50.836;4.348;2024-02-28T08:25:12;28.80;;;13.77;;
21581;SDS011;10952;50.836;4.348;2024-02-28T08:27:38;38.20;;;13.57;;
21581;SDS011;10952;50.836;4.348;2024-02-28T08:30:04;30.83;;;14.87;;
21581;SDS011;10952;50.836;4.348;2024-02-28T08:32:32;29.10;;;13.80;;
21581;SDS011;10952;50.836;4.348;2024-02-28T08:34:58;33.73;;;13.47;;
21581;SDS011;10952;50.836;4.348;2024-02-28T08:37:25;38.03;;;17.03;;
21581;SDS011;10952;50.836;4.348;2024-02-28T08:39:52;28.30;;;14.23;;
21581;SDS011;10952;50.836;4.348;2024-02-28T08:42:20;29.87;;;13.53;;
21581;SDS011;10952;50.836;4.348;2024-02-28T08:44:45;26.27;;;12.30;;
21581;SDS011;10952;50.836;4.348;2024-02-28T08:47:13;29.50;;;12.87;;
21581;SDS011;10952;50.836;4.348;2024-02-28T08:49:39;38.87;;;15.13;;
21581;SDS011;10952;50.836;4.348;2024-02-28T08:52:04;34.17;;;13.70;;
21581;SDS011;10952;50.836;4.348;2024-02-28T08:54:30;33.17;;;13.57;;
21581;SDS011;10952;50.836;4.348;2024-02-28T08:56:56;32.07;;;14.63;;
21581;SDS011;10952;50.836;4.348;2024-02-28T08:59:22;29.57;;;14.10;;
21581;SDS011;10952;50.836;4.348;2024-02-28T09:01:48;33.73;;;14.33;;
21581;SDS011;10952;50.836;4.348;2024-02-28T09:04:14;28.20;;;13.20;;
21581;SDS011;10952;50.836;4.348;2024-02-28T09:06:39;32.53;;;13.50;;
21581;SDS011;10952;50.836;4.348;2024-02-28T09:09:06;34.13;;;15.27;;
21581;SDS011;10952;50.836;4.348;2024-02-28T09:11:31;32.33;;;14.10;;
21581;SDS011;10952;50.836;4.348;2024-02-28T09:13:57;36.53;;;14.40;;
21581;SDS011;10952;50.836;4.348;2024-02-28T09:16:22;29.80;;;13.43;;
21581;SDS011;10952;50.836;4.348;2024-02-28T09:18:48;34.43;;;14.40;;
21581;SDS011;10952;50.836;4.348;2024-02-28T09:21:14;36.20;;;13.83;;
21581;SDS011;10952;50.836;4.348;2024-02-28T09:23:40;33.93;;;14.40;;
21581;SDS011;10952;50.836;4.348;2024-02-28T09:26:06;29.80;;;13.60;;
21581;SDS011;10952;50.836;4.348;2024-02-28T09:28:32;34.43;;;13.37;;
21581;SDS011;10952;50.836;4.348;2024-02-28T09:30:58;29.40;;;12.90;;
21581;SDS011;10952;50.836;4.348;2024-02-28T09:33:24;29.90;;;12.07;;
21581;SDS011;10952;50.836;4.348;2024-02-28T09:35:49;28.20;;;11.93;;
21581;SDS011;10952;50.836;4.348;2024-02-28T09:38:15;25.40;;;12.77;;
21581;SDS011;10952;50.836;4.348;2024-02-28T09:40:41;31.07;;;15.30;;
21581;SDS011;10952;50.836;4.348;2024-02-28T09:43:10;27.50;;;11.83;;
21581;SDS011;10952;50.836;4.348;2024-02-28T09:45:40;29.20;;;11.77;;
21581;SDS011;10952;50.836;4.348;2024-02-28T09:48:06;28.57;;;11.33;;
21581;SDS011;10952;50.836;4.348;2024-02-28T09:50:34;24.33;;;12.37;;
21581;SDS011;10952;50.836;4.348;2024-02-28T09:53:00;29.27;;;12.57;;
21581;SDS011;10952;50.836;4.348;2024-02-28T09:55:25;25.97;;;12.20;;
21581;SDS011;10952;50.836;4.348;2024-02-28T09:57:51;27.67;;;12.27;;
21581;SDS011;10952;50.836;4.348;2024-02-28T10:00:19;30.33;;;11.13;;
21581;SDS011;10952;50.836;4.348;2024-02-28T10:02:47;26.87;;;11.33;;
21581;SDS011;10952;50.836;4.348;2024-02-28T10:05:16;29.60;;;12.20;;
21581;SDS011;10952;50.836;4.348;2024-02-28T10:07:44;30.60;;;12.83;;
21581;SDS011;10952;50.836;4.348;2024-02-28T10:10:14;28.43;;;12.47;;
21581;SDS011;10952;50.836;4.348;2024-02-28T10:12:42;33.53;;;12.10;;
21581;SDS011;10952;50.836;4.348;2024-02-28T10:15:09;28.40;;;13.33;;
21581;SDS011;10952;50.836;4.348;2024-02-28T10:17:35;26.97;;;12.17;;
21581;SDS011;10952;50.836;4.348;2024-02-28T10:20:01;27.10;;;11.97;;
21581;SDS011;10952;50.836;4.348;2024-02-28T10:22:33;23.50;;;11.40;;
21581;SDS011;10952;50.836;4.348;2024-02-28T10:25:00;36.90;;;13.17;;
21581;SDS011;10952;50.836;4.348;2024-02-28T10:27:25;23.87;;;11.67;;
21581;SDS011;10952;50.836;4.348;2024-02-28T10:29:51;26.53;;;12.00;;
21581;SDS011;10952;50.836;4.348;2024-02-28T10:32:17;26.90;;;13.43;;
21581;SDS011;10952;50.836;4.348;2024-02-28T10:34:43;25.83;;;12.40;;
21581;SDS011;10952;50.836;4.348;2024-02-28T10:37:10;24.20;;;10.90;;
21581;SDS011;10952;50.836;4.348;2024-02-28T10:39:37;19.03;;;9.43;;
21581;SDS011;10952;50.836;4.348;2024-02-28T10:42:03;25.23;;;10.10;;
21581;SDS011;10952;50.836;4.348;2024-02-28T10:44:30;17.47;;;8.37;;
21581;SDS011;10952;50.836;4.348;2024-02-28T10:46:58;19.43;;;9.53;;
21581;SDS011;10952;50.836;4.348;2024-02-28T10:49:25;21.97;;;10.53;;
21581;SDS011;10952;50.836;4.348;2024-02-28T10:51:50;20.57;;;10.53;;
21581;SDS011;10952;50.836;4.348;2024-02-28T10:54:20;18.87;;;10.03;;
21581;SDS011;10952;50.836;4.348;2024-02-28T10:56:50;19.20;;;9.53;;
21581;SDS011;10952;50.836;4.348;2024-02-28T10:59:18;22.13;;;10.93;;
21581;SDS011;10952;50.836;4.348;2024-02-28T11:01:51;21.30;;;11.07;;
21581;SDS011;10952;50.836;4.348;2024-02-28T11:04:20;16.10;;;9.80;;
21581;SDS011;10952;50.836;4.348;2024-02-28T11:06:54;19.70;;;9.70;;
21581;SDS011;10952;50.836;4.348;2024-02-28T11:09:24;15.73;;;8.13;;
21581;SDS011;10952;50.836;4.348;2024-02-28T11:11:53;23.17;;;8.50;;
21581;SDS011;10952;50.836;4.348;2024-02-28T11:14:22;17.77;;;8.03;;
21581;SDS011;10952;50.836;4.348;2024-02-28T11:17:04;14.77;;;7.53;;
21581;SDS011;10952;50.836;4.348;2024-02-28T11:19:36;15.90;;;8.20;;
21581;SDS011;10952;50.836;4.348;2024-02-28T11:22:05;18.53;;;8.53;;
21581;SDS011;10952;50.836;4.348;2024-02-28T11:24:37;15.23;;;7.33;;
21581;SDS011;10952;50.836;4.348;2024-02-28T11:27:12;15.13;;;6.87;;
21581;SDS011;10952;50.836;4.348;2024-02-28T11:29:46;15.70;;;8.20;;
21581;SDS011;10952;50.836;4.348;2024-02-28T11:32:15;13.77;;;6.17;;
21581;SDS011;10952;50.836;4.348;2024-02-28T11:34:43;14.13;;;6.50;;
21581;SDS011;10952;50.836;4.348;2024-02-28T11:37:11;13.47;;;7.53;;
21581;SDS011;10952;50.836;4.348;2024-02-28T11:39:36;14.57;;;6.97;;
21581;SDS011;10952;50.836;4.348;2024-02-28T11:42:12;20.40;;;8.33;;
21581;SDS011;10952;50.836;4.348;2024-02-28T11:44:40;26.83;;;9.47;;
21581;SDS011;10952;50.836;4.348;2024-02-28T11:47:10;19.03;;;7.47;;
21581;SDS011;10952;50.836;4.348;2024-02-28T11:49:40;12.20;;;6.07;;
21581;SDS011;10952;50.836;4.348;2024-02-28T11:52:19;12.47;;;5.97;;
21581;SDS011;10952;50.836;4.348;2024-02-28T11:54:45;12.03;;;6.67;;
21581;SDS011;10952;50.836;4.348;2024-02-28T11:57:12;12.43;;;6.63;;
21581;SDS011;10952;50.836;4.348;2024-02-28T11:59:46;10.77;;;6.03;;
21581;SDS011;10952;50.836;4.348;2024-02-28T12:02:18;16.33;;;9.10;;
21581;SDS011;10952;50.836;4.348;2024-02-28T12:07:28;14.00;;;5.87;;
21581;SDS011;10952;50.836;4.348;2024-02-28T12:12:27;13.10;;;6.20;;
21581;SDS011;10952;50.836;4.348;2024-02-28T12:15:02;12.10;;;6.20;;
21581;SDS011;10952;50.836;4.348;2024-02-28T12:17:52;9.03;;;5.43;;
21581;SDS011;10952;50.836;4.348;2024-02-28T12:20:18;12.93;;;6.13;;
21581;SDS011;10952;50.836;4.348;2024-02-28T12:22:44;14.87;;;5.30;;
21581;SDS011;10952;50.836;4.348;2024-02-28T12:25:15;11.13;;;6.00;;
21581;SDS011;10952;50.836;4.348;2024-02-28T12:27:41;12.27;;;5.73;;
21581;SDS011;10952;50.836;4.348;2024-02-28T12:32:39;10.70;;;5.80;;
21581;SDS011;10952;50.836;4.348;2024-02-28T12:35:06;10.57;;;6.50;;
21581;SDS011;10952;50.836;4.348;2024-02-28T12:37:36;12.13;;;5.67;;
21581;SDS011;10952;50.836;4.348;2024-02-28T12:40:05;11.63;;;5.23;;
21581;SDS011;10952;50.836;4.348;2024-02-28T12:42:31;15.43;;;6.20;;
21581;SDS011;10952;50.836;4.348;2024-02-28T12:44:58;10.60;;;5.83;;
21581;SDS011;10952;50.836;4.348;2024-02-28T12:47:27;12.70;;;5.93;;
21581;SDS011;10952;50.836;4.348;2024-02-28T12:49:54;12.97;;;5.80;;
21581;SDS011;10952;50.836;4.348;2024-02-28T12:52:23;10.90;;;6.70;;
21581;SDS011;10952;50.836;4.348;2024-02-28T12:54:49;10.57;;;5.67;;
21581;SDS011;10952;50.836;4.348;2024-02-28T12:57:18;9.23;;;5.67;;
21581;SDS011;10952;50.836;4.348;2024-02-28T12:59:53;11.73;;;5.93;;
21581;SDS011;10952;50.836;4.348;2024-02-28T13:02:19;10.90;;;5.60;;
21581;SDS011;10952;50.836;4.348;2024-02-28T13:04:45;16.03;;;6.73;;
21581;SDS011;10952;50.836;4.348;2024-02-28T13:07:15;11.40;;;6.53;;
21581;SDS011;10952;50.836;4.348;2024-02-28T13:09:42;12.47;;;6.40;;
21581;SDS011;10952;50.836;4.348;2024-02-28T13:12:08;13.97;;;6.07;;
21581;SDS011;10952;50.836;4.348;2024-02-28T13:14:34;15.07;;;7.00;;
21581;SDS011;10952;50.836;4.348;2024-02-28T13:17:01;9.03;;;5.80;;
21581;SDS011;10952;50.836;4.348;2024-02-28T13:19:28;11.30;;;6.07;;
21581;SDS011;10952;50.836;4.348;2024-02-28T13:21:54;10.73;;;5.90;;
21581;SDS011;10952;50.836;4.348;2024-02-28T13:24:27;10.73;;;6.00;;
21581;SDS011;10952;50.836;4.348;2024-02-28T13:26:52;13.17;;;6.10;;
21581;SDS011;10952;50.836;4.348;2024-02-28T13:29:20;16.13;;;7.50;;
21581;SDS011;10952;50.836;4.348;2024-02-28T13:34:16;11.17;;;6.10;;
21581;SDS011;10952;50.836;4.348;2024-02-28T13:36:45;11.20;;;5.63;;
21581;SDS011;10952;50.836;4.348;2024-02-28T13:39:13;10.83;;;5.23;;
21581;SDS011;10952;50.836;4.348;2024-02-28T13:44:18;8.00;;;4.83;;
21581;SDS011;10952;50.836;4.348;2024-02-28T13:46:46;12.13;;;5.60;;
21581;SDS011;10952;50.836;4.348;2024-02-28T13:49:14;11.70;;;5.30;;
21581;SDS011;10952;50.836;4.348;2024-02-28T13:51:47;14.47;;;6.20;;
21581;SDS011;10952;50.836;4.348;2024-02-28T13:54:15;15.70;;;6.63;;
21581;SDS011;10952;50.836;4.348;2024-02-28T13:56:41;9.43;;;5.13;;
21581;SDS011;10952;50.836;4.348;2024-02-28T13:59:08;13.50;;;6.47;;
21581;SDS011;10952;50.836;4.348;2024-02-28T14:01:36;10.87;;;6.10;;
21581;SDS011;10952;50.836;4.348;2024-02-28T14:04:02;10.63;;;5.57;;
21581;SDS011;10952;50.836;4.348;2024-02-28T14:06:29;16.17;;;6.50;;
21581;SDS011;10952;50.836;4.348;2024-02-28T14:09:01;12.83;;;5.67;;
21581;SDS011;10952;50.836;4.348;2024-02-28T14:11:30;11.30;;;6.23;;
21581;SDS011;10952;50.836;4.348;2024-02-28T14:13:57;10.67;;;5.43;;
21581;SDS011;10952;50.836;4.348;2024-02-28T14:16:23;11.90;;;4.83;;
21581;SDS011;10952;50.836;4.348;2024-02-28T14:18:51;10.07;;;4.97;;
21581;SDS011;10952;50.836;4.348;2024-02-28T14:21:16;8.90;;;5.00;;
21581;SDS011;10952;50.836;4.348;2024-02-28T14:23:45;10.73;;;5.67;;
21581;SDS011;10952;50.836;4.348;2024-02-28T14:26:12;10.33;;;5.70;;
21581;SDS011;10952;50.836;4.348;2024-02-28T14:28:41;12.20;;;6.43;;
21581;SDS011;10952;50.836;4.348;2024-02-28T14:31:09;15.67;;;6.67;;
21581;SDS011;10952;50.836;4.348;2024-02-28T14:33:38;13.53;;;6.03;;
21581;SDS011;10952;50.836;4.348;2024-02-28T14:36:08;12.20;;;6.60;;